createdAt,value
2019-01-20T00:00:00.598Z,0.00
2019-01-20T00:01:00.567Z,0.00
2019-01-20T00:02:00.547Z,0.00
2019-01-20T00:03:00.538Z,0.00
2019-01-20T00:04:00.525Z,0.00
2019-01-20T00:05:00.571Z,0.00
2019-01-20T00:06:00.511Z,0.00
2019-01-20T00:07:00.510Z,0.00
2019-01-20T00:08:00.489Z,0.00
2019-01-20T00:09:00.478Z,0.00
2019-01-20T00:10:00.498Z,0.00
2019-01-20T00:11:00.448Z,0.00
2019-01-20T00:12:00.441Z,0.00
2019-01-20T00:13:00.462Z,0.00
2019-01-20T00:14:00.474Z,0.00
2019-01-20T00:15:00.523Z,0.00
2019-01-20T00:16:00.502Z,0.00
2019-01-20T00:17:00.406Z,0.00
2019-01-20T00:18:00.388Z,0.00
2019-01-20T00:19:00.373Z,0.00
2019-01-20T00:20:00.372Z,0.00
2019-01-20T00:21:00.383Z,0.00
2019-01-20T00:22:00.347Z,0.00
2019-01-20T00:23:00.357Z,0.00
2019-01-20T00:24:00.322Z,0.00
2019-01-20T00:25:00.405Z,0.00
2019-01-20T00:26:00.332Z,0.00
2019-01-20T00:27:00.322Z,0.00
2019-01-20T00:28:00.326Z,0.00
2019-01-20T00:29:00.261Z,0.00
2019-01-20T00:30:00.278Z,0.00
2019-01-20T00:31:00.250Z,0.00
2019-01-20T00:32:00.239Z,0.00
2019-01-20T00:33:00.261Z,0.00
2019-01-20T00:34:00.210Z,0.00
2019-01-20T00:35:00.244Z,0.00
2019-01-20T00:36:00.191Z,0.00
2019-01-20T00:37:00.183Z,0.00
2019-01-20T00:38:00.189Z,0.00
2019-01-20T00:39:00.191Z,0.00
2019-01-20T00:40:00.257Z,0.00
2019-01-20T00:41:00.137Z,0.00
2019-01-20T00:42:00.124Z,0.00
2019-01-20T00:43:00.121Z,0.00
2019-01-20T00:44:00.138Z,0.00
2019-01-20T00:45:02.792Z,0.00
2019-01-20T00:46:00.088Z,0.00
2019-01-20T00:47:00.073Z,0.00
2019-01-20T00:48:00.061Z,0.00
2019-01-20T00:49:00.058Z,0.00
2019-01-20T00:50:00.089Z,0.00
2019-01-20T00:51:00.035Z,0.00
2019-01-20T00:52:00.026Z,0.00
2019-01-20T00:53:00.013Z,0.00
2019-01-20T00:54:00.056Z,0.00
2019-01-20T00:54:59.989Z,0.00
2019-01-20T00:55:59.985Z,0.00
2019-01-20T00:56:59.972Z,0.00
2019-01-20T00:57:59.956Z,0.00
2019-01-20T00:58:59.948Z,0.00
2019-01-20T00:59:59.961Z,0.00
2019-01-20T01:00:59.918Z,0.00
2019-01-20T01:01:59.908Z,0.00
2019-01-20T01:02:59.903Z,0.00
2019-01-20T01:03:59.893Z,0.00
2019-01-20T01:04:59.912Z,0.00
2019-01-20T01:05:59.882Z,0.00
2019-01-20T01:06:59.854Z,0.00
2019-01-20T01:07:59.845Z,0.00
2019-01-20T01:08:59.842Z,0.00
2019-01-20T01:09:59.831Z,0.00
2019-01-20T01:10:59.849Z,0.00
2019-01-20T01:11:59.809Z,0.00
2019-01-20T01:12:59.798Z,0.00
2019-01-20T01:13:59.781Z,0.00
2019-01-20T01:14:59.771Z,0.00
2019-01-20T01:15:59.766Z,0.00
2019-01-20T01:16:59.780Z,0.00
2019-01-20T01:17:59.747Z,0.00
2019-01-20T01:18:59.732Z,0.00
2019-01-20T01:19:59.723Z,0.00
2019-01-20T01:20:59.748Z,0.00
2019-01-20T01:21:59.703Z,0.00
2019-01-20T01:22:59.772Z,0.00
2019-01-20T01:23:59.685Z,0.00
2019-01-20T01:24:59.683Z,0.00
2019-01-20T01:25:59.661Z,0.00
2019-01-20T01:26:59.666Z,0.00
2019-01-20T01:27:59.650Z,0.00
2019-01-20T01:28:59.632Z,0.00
2019-01-20T01:29:59.622Z,0.00
2019-01-20T01:30:59.610Z,0.00
2019-01-20T01:31:59.621Z,0.00
2019-01-20T01:32:59.582Z,0.00
2019-01-20T01:33:59.574Z,0.00
2019-01-20T01:34:59.579Z,0.00
2019-01-20T01:35:59.556Z,0.00
2019-01-20T01:36:59.561Z,0.00
2019-01-20T01:37:59.562Z,0.00
2019-01-20T01:38:59.519Z,0.00
2019-01-20T01:39:59.517Z,0.00
2019-01-20T01:40:59.502Z,0.00
2019-01-20T01:41:59.500Z,0.00
2019-01-20T01:42:59.496Z,0.00
2019-01-20T01:44:00.163Z,0.00
2019-01-20T01:44:59.457Z,0.00
2019-01-20T01:45:59.445Z,0.00
2019-01-20T01:46:59.434Z,0.00
2019-01-20T01:47:59.457Z,0.00
2019-01-20T01:48:59.418Z,0.00
2019-01-20T01:49:59.920Z,0.00
2019-01-20T01:50:59.395Z,0.00
2019-01-20T01:51:59.388Z,0.00
2019-01-20T01:52:59.383Z,0.00
2019-01-20T01:53:59.389Z,0.00
2019-01-20T01:54:59.391Z,0.00
2019-01-20T01:55:59.350Z,0.00
2019-01-20T01:56:59.330Z,0.00
2019-01-20T01:57:59.323Z,0.00
2019-01-20T01:58:59.308Z,0.00
2019-01-20T01:59:59.314Z,0.00
2019-01-20T02:00:59.321Z,0.00
2019-01-20T02:01:59.287Z,0.00
2019-01-20T02:02:59.312Z,0.00
2019-01-20T02:03:59.263Z,0.00
2019-01-20T02:04:59.269Z,0.00
2019-01-20T02:05:59.268Z,0.00
2019-01-20T02:06:59.230Z,0.00
2019-01-20T02:07:59.219Z,0.00
2019-01-20T02:08:59.209Z,0.00
2019-01-20T02:09:59.196Z,0.00
2019-01-20T02:10:59.186Z,0.00
2019-01-20T02:11:59.205Z,0.00
2019-01-20T02:12:59.185Z,0.00
2019-01-20T02:13:59.160Z,0.00
2019-01-20T02:14:59.151Z,0.00
2019-01-20T02:15:59.141Z,0.00
2019-01-20T02:16:59.122Z,0.00
2019-01-20T02:17:59.143Z,0.00
2019-01-20T02:18:59.106Z,0.00
2019-01-20T02:19:59.091Z,0.00
2019-01-20T02:20:59.105Z,0.00
2019-01-20T02:21:59.074Z,0.00
2019-01-20T02:22:59.079Z,0.00
2019-01-20T02:23:59.047Z,0.00
2019-01-20T02:24:59.042Z,0.00
2019-01-20T02:25:59.031Z,0.00
2019-01-20T02:26:59.022Z,0.00
2019-01-20T02:27:59.034Z,0.00
2019-01-20T02:28:58.995Z,0.00
2019-01-20T02:29:58.990Z,0.00
2019-01-20T02:30:59.030Z,0.00
2019-01-20T02:31:58.962Z,0.00
2019-01-20T02:32:58.990Z,0.00
2019-01-20T02:33:58.950Z,0.00
2019-01-20T02:34:58.936Z,0.00
2019-01-20T02:35:58.926Z,0.00
2019-01-20T02:36:58.910Z,0.00
2019-01-20T02:37:58.901Z,0.00
2019-01-20T02:38:58.919Z,0.00
2019-01-20T02:39:58.918Z,0.00
2019-01-20T02:40:58.869Z,0.00
2019-01-20T02:41:58.859Z,0.00
2019-01-20T02:42:58.846Z,0.00
2019-01-20T02:43:58.835Z,0.00
2019-01-20T02:44:58.832Z,0.00
2019-01-20T02:45:58.850Z,0.00
2019-01-20T02:46:58.809Z,0.00
2019-01-20T02:47:58.805Z,0.00
2019-01-20T02:48:58.813Z,0.00
2019-01-20T02:49:58.770Z,0.00
2019-01-20T02:50:58.790Z,0.00
2019-01-20T02:51:58.759Z,0.00
2019-01-20T02:52:58.747Z,0.00
2019-01-20T02:53:58.752Z,0.00
2019-01-20T02:54:58.721Z,0.00
2019-01-20T02:55:58.734Z,0.00
2019-01-20T02:56:58.707Z,0.00
2019-01-20T02:57:58.696Z,0.00
2019-01-20T02:58:58.683Z,0.00
2019-01-20T02:59:58.673Z,0.00
2019-01-20T03:00:58.683Z,0.00
2019-01-20T03:01:58.649Z,0.00
2019-01-20T03:02:58.642Z,0.00
2019-01-20T03:03:58.628Z,0.00
2019-01-20T03:04:58.623Z,0.00
2019-01-20T03:05:58.637Z,0.00
2019-01-20T03:06:58.602Z,0.00
2019-01-20T03:07:58.642Z,0.00
2019-01-20T03:08:58.575Z,0.00
2019-01-20T03:09:58.568Z,0.00
2019-01-20T03:10:58.561Z,0.00
2019-01-20T03:12:03.433Z,0.00
2019-01-20T03:12:59.556Z,0.00
2019-01-20T03:13:58.529Z,0.00
2019-01-20T03:14:58.510Z,0.00
2019-01-20T03:15:58.501Z,0.00
2019-01-20T03:16:58.503Z,0.00
2019-01-20T03:17:58.543Z,0.00
2019-01-20T03:18:58.475Z,0.00
2019-01-20T03:19:58.463Z,0.00
2019-01-20T03:20:58.450Z,0.00
2019-01-20T03:21:58.452Z,0.00
2019-01-20T03:22:58.424Z,0.00
2019-01-20T03:23:58.440Z,0.00
2019-01-20T03:24:58.416Z,0.00
2019-01-20T03:25:58.403Z,0.00
2019-01-20T03:26:58.385Z,0.00
2019-01-20T03:27:58.374Z,0.00
2019-01-20T03:28:58.405Z,0.00
2019-01-20T03:29:58.364Z,0.00
2019-01-20T03:30:58.348Z,0.00
2019-01-20T03:31:58.340Z,0.00
2019-01-20T03:32:58.324Z,0.00
2019-01-20T03:33:58.316Z,0.00
2019-01-20T03:34:58.331Z,0.00
2019-01-20T03:35:58.293Z,0.00
2019-01-20T03:36:58.290Z,0.00
2019-01-20T03:37:58.281Z,0.00
2019-01-20T03:38:58.262Z,0.00
2019-01-20T03:39:58.278Z,0.00
2019-01-20T03:40:58.238Z,0.00
2019-01-20T03:41:58.231Z,0.00
2019-01-20T03:42:58.221Z,0.00
2019-01-20T03:43:58.212Z,0.00
2019-01-20T03:44:58.231Z,0.00
2019-01-20T03:45:58.186Z,0.00
2019-01-20T03:46:58.176Z,0.00
2019-01-20T03:47:58.168Z,0.00
2019-01-20T03:48:58.160Z,0.00
2019-01-20T03:49:58.149Z,0.00
2019-01-20T03:50:58.162Z,0.00
2019-01-20T03:51:58.128Z,0.00
2019-01-20T03:52:58.113Z,0.00
2019-01-20T03:53:58.100Z,0.00
2019-01-20T03:54:58.092Z,0.00
2019-01-20T03:56:03.449Z,0.00
2019-01-20T03:56:58.074Z,0.00
2019-01-20T03:57:58.067Z,0.00
2019-01-20T03:58:58.048Z,0.00
2019-01-20T03:59:58.039Z,0.00
2019-01-20T04:00:58.064Z,0.00
2019-01-20T04:01:58.050Z,0.00
2019-01-20T04:02:58.014Z,0.00
2019-01-20T04:03:58.005Z,0.00
2019-01-20T04:04:57.988Z,0.00
2019-01-20T04:05:57.986Z,0.00
2019-01-20T04:06:57.999Z,0.00
2019-01-20T04:07:57.962Z,0.00
2019-01-20T04:08:57.951Z,0.00
2019-01-20T04:09:57.945Z,0.00
2019-01-20T04:10:57.929Z,0.00
2019-01-20T04:11:57.930Z,0.00
2019-01-20T04:12:57.928Z,0.00
2019-01-20T04:13:57.892Z,0.00
2019-01-20T04:14:57.896Z,0.00
2019-01-20T04:15:57.877Z,0.00
2019-01-20T04:16:57.898Z,0.00
2019-01-20T04:17:57.849Z,0.00
2019-01-20T04:18:57.838Z,0.00
2019-01-20T04:19:57.831Z,0.00
2019-01-20T04:20:57.838Z,0.00
2019-01-20T04:21:57.815Z,0.00
2019-01-20T04:22:57.829Z,0.00
2019-01-20T04:23:57.795Z,0.00
2019-01-20T04:24:57.787Z,0.00
2019-01-20T04:25:57.769Z,0.00
2019-01-20T04:26:57.780Z,0.00
2019-01-20T04:27:57.771Z,0.00
2019-01-20T04:28:57.745Z,0.00
2019-01-20T04:29:57.743Z,0.00
2019-01-20T04:30:57.720Z,0.00
2019-01-20T04:31:57.736Z,0.00
2019-01-20T04:32:57.698Z,0.00
2019-01-20T04:33:57.711Z,0.00
2019-01-20T04:34:57.716Z,0.00
2019-01-20T04:35:57.668Z,0.00
2019-01-20T04:36:57.656Z,0.00
2019-01-20T04:37:57.644Z,0.00
2019-01-20T04:38:57.652Z,0.00
2019-01-20T04:39:57.620Z,0.00
2019-01-20T04:40:57.614Z,0.00
2019-01-20T04:41:57.607Z,0.00
2019-01-20T04:42:57.598Z,0.00
2019-01-20T04:43:57.615Z,0.00
2019-01-20T04:44:57.567Z,0.00
2019-01-20T04:45:57.556Z,0.00
2019-01-20T04:46:57.550Z,0.00
2019-01-20T04:47:57.544Z,0.00
2019-01-20T04:48:57.526Z,0.00
2019-01-20T04:49:57.552Z,0.00
2019-01-20T04:50:57.502Z,0.00
2019-01-20T04:51:57.493Z,0.00
2019-01-20T04:52:57.488Z,0.00
2019-01-20T04:53:57.479Z,0.00
2019-01-20T04:54:57.466Z,0.00
2019-01-20T04:55:57.489Z,0.00
2019-01-20T04:56:57.447Z,0.00
2019-01-20T04:57:57.429Z,0.00
2019-01-20T04:58:57.419Z,0.00
2019-01-20T04:59:57.413Z,0.00
2019-01-20T05:00:57.406Z,0.00
2019-01-20T05:01:57.423Z,0.00
2019-01-20T05:02:57.377Z,0.00
2019-01-20T05:03:57.368Z,0.00
2019-01-20T05:04:57.399Z,0.00
2019-01-20T05:05:57.366Z,0.00
2019-01-20T05:06:57.343Z,0.00
2019-01-20T05:07:57.378Z,0.00
2019-01-20T05:08:57.330Z,0.00
2019-01-20T05:09:57.304Z,0.00
2019-01-20T05:10:57.335Z,0.00
2019-01-20T05:11:57.285Z,0.00
2019-01-20T05:12:57.311Z,0.00
2019-01-20T05:13:57.270Z,0.00
2019-01-20T05:14:57.258Z,0.00
2019-01-20T05:15:57.262Z,0.00
2019-01-20T05:16:57.256Z,0.00
2019-01-20T05:17:57.223Z,0.00
2019-01-20T05:18:57.225Z,0.00
2019-01-20T05:19:57.213Z,0.00
2019-01-20T05:20:57.199Z,0.00
2019-01-20T05:21:57.206Z,0.00
2019-01-20T05:22:57.170Z,0.00
2019-01-20T05:23:57.159Z,0.00
2019-01-20T05:24:57.153Z,0.00
2019-01-20T05:25:57.147Z,0.00
2019-01-20T05:26:57.154Z,0.00
2019-01-20T05:27:57.123Z,0.00
2019-01-20T05:28:57.108Z,0.00
2019-01-20T05:29:57.096Z,0.00
2019-01-20T05:30:57.109Z,0.00
2019-01-20T05:31:57.077Z,0.00
2019-01-20T05:32:57.091Z,0.00
2019-01-20T05:33:57.082Z,0.00
2019-01-20T05:34:57.231Z,0.00
2019-01-20T05:35:57.058Z,0.00
2019-01-20T05:36:57.032Z,0.00
2019-01-20T05:37:57.021Z,0.00
2019-01-20T05:38:57.011Z,0.00
2019-01-20T05:39:56.996Z,0.00
2019-01-20T05:40:57.024Z,0.00
2019-01-20T05:41:56.975Z,0.00
2019-01-20T05:42:56.960Z,0.00
2019-01-20T05:43:56.950Z,0.00
2019-01-20T05:44:56.943Z,0.00
2019-01-20T05:45:56.939Z,0.00
2019-01-20T05:46:56.952Z,0.00
2019-01-20T05:47:56.916Z,0.00
2019-01-20T05:48:56.899Z,0.00
2019-01-20T05:49:56.886Z,0.00
2019-01-20T05:50:56.881Z,0.00
2019-01-20T05:51:56.871Z,0.00
2019-01-20T05:52:56.880Z,0.00
2019-01-20T05:53:56.877Z,0.00
2019-01-20T05:54:56.835Z,0.00
2019-01-20T05:55:56.823Z,0.00
2019-01-20T05:56:56.819Z,0.00
2019-01-20T05:57:56.834Z,0.00
2019-01-20T05:58:56.800Z,0.00
2019-01-20T05:59:56.793Z,0.00
2019-01-20T06:00:56.784Z,0.00
2019-01-20T06:01:56.763Z,0.00
2019-01-20T06:02:56.771Z,0.00
2019-01-20T06:03:56.741Z,0.00
2019-01-20T06:04:56.751Z,0.00
2019-01-20T06:05:56.727Z,0.00
2019-01-20T06:06:56.709Z,0.00
2019-01-20T06:07:56.735Z,0.00
2019-01-20T06:08:56.709Z,0.00
2019-01-20T06:09:56.724Z,0.00
2019-01-20T06:10:56.696Z,0.00
2019-01-20T06:11:56.680Z,0.00
2019-01-20T06:12:56.741Z,0.00
2019-01-20T06:13:56.648Z,0.00
2019-01-20T06:14:57.057Z,0.00
2019-01-20T06:15:56.638Z,0.00
2019-01-20T06:16:56.691Z,0.00
2019-01-20T06:17:56.618Z,0.00
2019-01-20T06:18:56.604Z,0.00
2019-01-20T06:19:56.603Z,0.00
2019-01-20T06:20:56.614Z,0.00
2019-01-20T06:21:56.596Z,0.00
2019-01-20T06:22:56.556Z,0.00
2019-01-20T06:23:56.628Z,0.00
2019-01-20T06:24:56.536Z,0.00
2019-01-20T06:25:56.522Z,0.00
2019-01-20T06:26:56.533Z,0.00
2019-01-20T06:27:56.514Z,0.00
2019-01-20T06:28:56.496Z,0.00
2019-01-20T06:29:56.535Z,0.00
2019-01-20T06:30:56.476Z,0.00
2019-01-20T06:31:56.459Z,4.00
2019-01-20T06:32:56.532Z,4.00
2019-01-20T06:33:56.509Z,0.00
2019-01-20T06:34:56.424Z,0.00
2019-01-20T06:35:56.418Z,4.00
2019-01-20T06:36:56.468Z,4.00
2019-01-20T06:37:56.400Z,4.00
2019-01-20T06:38:56.401Z,8.00
2019-01-20T06:39:56.373Z,8.00
2019-01-20T06:40:56.996Z,8.00
2019-01-20T06:41:56.359Z,8.00
2019-01-20T06:43:01.611Z,8.00
2019-01-20T06:43:57.367Z,12.00
2019-01-20T06:44:56.323Z,12.00
2019-01-20T06:45:56.305Z,16.00
2019-01-20T06:46:56.294Z,16.00
2019-01-20T06:47:56.309Z,20.00
2019-01-20T06:48:56.288Z,24.00
2019-01-20T06:49:56.302Z,28.00
2019-01-20T06:50:56.282Z,28.00
2019-01-20T06:51:56.261Z,32.00
2019-01-20T06:52:56.241Z,36.00
2019-01-20T06:53:56.239Z,44.00
2019-01-20T06:54:56.233Z,48.00
2019-01-20T06:55:56.288Z,56.00
2019-01-20T06:56:56.197Z,64.00
2019-01-20T06:57:56.183Z,68.00
2019-01-20T06:58:56.173Z,76.00
2019-01-20T06:59:56.172Z,84.00
2019-01-20T07:00:56.181Z,92.00
2019-01-20T07:01:56.143Z,100.00
2019-01-20T07:02:56.139Z,112.00
2019-01-20T07:03:56.132Z,120.00
2019-01-20T07:04:56.110Z,132.00
2019-01-20T07:05:56.130Z,144.00
2019-01-20T07:06:56.088Z,156.00
2019-01-20T07:07:56.077Z,164.00
2019-01-20T07:08:56.068Z,176.00
2019-01-20T07:09:56.060Z,192.00
2019-01-20T07:10:56.042Z,204.00
2019-01-20T07:11:56.073Z,216.00
2019-01-20T07:12:56.029Z,232.00
2019-01-20T07:13:56.016Z,248.00
2019-01-20T07:14:56.007Z,264.00
2019-01-20T07:15:56.000Z,280.00
2019-01-20T07:16:55.980Z,300.00
2019-01-20T07:17:55.993Z,316.00
2019-01-20T07:18:55.979Z,336.00
2019-01-20T07:19:55.948Z,356.00
2019-01-20T07:20:55.944Z,372.00
2019-01-20T07:21:55.942Z,392.00
2019-01-20T07:22:55.925Z,412.00
2019-01-20T07:23:55.952Z,436.00
2019-01-20T07:24:55.899Z,456.00
2019-01-20T07:25:55.888Z,480.00
2019-01-20T07:26:55.885Z,500.00
2019-01-20T07:27:55.870Z,524.00
2019-01-20T07:28:55.855Z,548.00
2019-01-20T07:29:56.025Z,576.00
2019-01-20T07:30:55.861Z,600.00
2019-01-20T07:31:55.830Z,628.00
2019-01-20T07:32:55.830Z,656.00
2019-01-20T07:33:55.819Z,684.00
2019-01-20T07:34:55.805Z,712.00
2019-01-20T07:35:55.822Z,740.00
2019-01-20T07:36:55.778Z,772.00
2019-01-20T07:37:55.765Z,800.00
2019-01-20T07:38:55.754Z,836.00
2019-01-20T07:39:55.749Z,868.00
2019-01-20T07:40:55.769Z,892.00
2019-01-20T07:41:55.728Z,924.00
2019-01-20T07:42:55.721Z,956.00
2019-01-20T07:43:55.702Z,984.00
2019-01-20T07:44:55.706Z,1024.00
2019-01-20T07:45:55.714Z,1056.00
2019-01-20T07:46:55.680Z,1080.00
2019-01-20T07:47:55.689Z,1116.00
2019-01-20T07:48:55.655Z,1144.00
2019-01-20T07:49:55.646Z,1164.00
2019-01-20T07:50:55.638Z,1188.00
2019-01-20T07:51:55.641Z,1224.00
2019-01-20T07:52:55.622Z,1256.00
2019-01-20T07:53:55.606Z,1284.00
2019-01-20T07:54:55.604Z,1320.00
2019-01-20T07:55:55.613Z,1356.00
2019-01-20T07:56:55.602Z,1392.00
2019-01-20T07:57:55.559Z,1424.00
2019-01-20T07:58:55.555Z,1464.00
2019-01-20T07:59:55.543Z,1508.00
2019-01-20T08:00:55.531Z,1548.00
2019-01-20T08:01:55.514Z,1584.00
2019-01-20T08:02:55.528Z,1624.00
2019-01-20T08:03:55.492Z,1672.00
2019-01-20T08:04:55.496Z,1700.00
2019-01-20T08:05:55.482Z,1752.00
2019-01-20T08:06:55.466Z,1800.00
2019-01-20T08:07:55.480Z,1872.00
2019-01-20T08:08:55.447Z,1932.00
2019-01-20T08:09:55.439Z,2004.00
2019-01-20T08:10:55.440Z,2076.00
2019-01-20T08:11:55.417Z,2156.00
2019-01-20T08:12:55.419Z,2232.00
2019-01-20T08:13:55.421Z,2320.00
2019-01-20T08:14:55.380Z,2424.00
2019-01-20T08:15:55.369Z,2536.00
2019-01-20T08:16:55.950Z,2660.00
2019-01-20T08:17:55.357Z,2756.00
2019-01-20T08:18:55.375Z,2832.00
2019-01-20T08:19:55.337Z,2888.00
2019-01-20T08:20:55.317Z,2968.00
2019-01-20T08:21:55.309Z,3032.00
2019-01-20T08:22:55.299Z,3100.00
2019-01-20T08:23:55.313Z,3176.00
2019-01-20T08:24:55.290Z,3236.00
2019-01-20T08:25:55.269Z,3308.00
2019-01-20T08:26:55.262Z,3364.00
2019-01-20T08:27:55.257Z,3472.00
2019-01-20T08:28:55.257Z,3560.00
2019-01-20T08:29:55.224Z,3676.00
2019-01-20T08:30:55.287Z,3828.00
2019-01-20T08:31:55.206Z,4148.00
2019-01-20T08:32:55.194Z,4800.00
2019-01-20T08:33:55.213Z,6056.00
2019-01-20T08:34:55.170Z,7960.00
2019-01-20T08:35:55.161Z,9332.00
2019-01-20T08:36:55.161Z,10300.00
2019-01-20T08:37:55.156Z,11360.00
2019-01-20T08:38:55.175Z,12192.00
2019-01-20T08:39:55.164Z,12544.00
2019-01-20T08:40:55.112Z,12448.00
2019-01-20T08:41:55.131Z,12032.00
2019-01-20T08:42:55.085Z,11564.00
2019-01-20T08:43:55.076Z,12096.00
2019-01-20T08:44:55.096Z,12288.00
2019-01-20T08:45:55.089Z,11776.00
2019-01-20T08:46:55.109Z,11260.00
2019-01-20T08:47:55.039Z,10760.00
2019-01-20T08:48:55.033Z,10792.00
2019-01-20T08:49:55.016Z,11156.00
2019-01-20T08:50:55.015Z,11668.00
2019-01-20T08:51:55.022Z,12672.00
2019-01-20T08:52:54.980Z,14080.00
2019-01-20T08:53:54.970Z,15680.00
2019-01-20T08:54:54.969Z,16384.00
2019-01-20T08:55:54.946Z,16832.00
2019-01-20T08:56:54.999Z,17024.00
2019-01-20T08:57:54.934Z,17184.00
2019-01-20T08:58:55.020Z,17472.00
2019-01-20T08:59:54.940Z,17536.00
2019-01-20T09:00:54.896Z,17568.00
2019-01-20T09:01:54.993Z,17472.00
2019-01-20T09:02:54.884Z,17600.00
2019-01-20T09:03:54.871Z,17952.00
2019-01-20T09:04:54.897Z,18464.00
2019-01-20T09:05:54.847Z,18944.00
2019-01-20T09:06:54.846Z,19488.00
2019-01-20T09:07:54.839Z,19520.00
2019-01-20T09:08:54.842Z,19136.00
2019-01-20T09:09:54.817Z,18784.00
2019-01-20T09:10:54.791Z,18656.00
2019-01-20T09:11:54.811Z,19072.00
2019-01-20T09:12:54.795Z,19168.00
2019-01-20T09:13:54.751Z,18592.00
2019-01-20T09:14:54.752Z,16064.00
2019-01-20T09:15:54.801Z,13984.00
2019-01-20T09:16:54.727Z,13696.00
2019-01-20T09:17:54.716Z,13344.00
2019-01-20T09:18:54.724Z,12556.00
2019-01-20T09:19:54.801Z,11832.00
2019-01-20T09:20:54.723Z,12084.00
2019-01-20T09:21:54.694Z,13728.00
2019-01-20T09:22:54.700Z,13728.00
2019-01-20T09:23:54.696Z,14016.00
2019-01-20T09:24:54.643Z,13824.00
2019-01-20T09:25:54.659Z,12428.00
2019-01-20T09:26:54.617Z,14144.00
2019-01-20T09:27:54.604Z,14656.00
2019-01-20T09:28:54.597Z,11824.00
2019-01-20T09:29:54.590Z,9824.00
2019-01-20T09:30:54.576Z,9468.00
2019-01-20T09:31:54.597Z,7856.00
2019-01-20T09:32:54.557Z,6692.00
2019-01-20T09:33:54.581Z,6992.00
2019-01-20T09:34:54.546Z,9552.00
2019-01-20T09:35:54.585Z,11988.00
2019-01-20T09:36:54.533Z,11212.00
2019-01-20T09:37:54.506Z,10744.00
2019-01-20T09:38:54.499Z,11540.00
2019-01-20T09:39:54.474Z,9628.00
2019-01-20T09:40:54.475Z,8144.00
2019-01-20T09:41:54.494Z,9880.00
2019-01-20T09:42:54.450Z,10796.00
2019-01-20T09:43:54.477Z,10160.00
2019-01-20T09:44:54.424Z,10280.00
2019-01-20T09:45:54.411Z,12600.00
2019-01-20T09:46:54.400Z,14720.00
2019-01-20T09:47:54.412Z,16864.00
2019-01-20T09:48:54.385Z,19872.00
2019-01-20T09:49:54.449Z,21984.00
2019-01-20T09:50:54.360Z,24224.00
2019-01-20T09:51:54.347Z,25696.00
2019-01-20T09:52:54.393Z,26240.00
2019-01-20T09:53:54.349Z,26784.00
2019-01-20T09:54:54.323Z,27392.00
2019-01-20T09:55:54.312Z,27840.00
2019-01-20T09:56:54.318Z,27744.00
2019-01-20T09:57:54.296Z,28064.00
2019-01-20T09:58:54.312Z,27392.00
2019-01-20T09:59:54.283Z,25952.00
2019-01-20T10:00:54.264Z,24320.00
2019-01-20T10:01:54.250Z,23392.00
2019-01-20T10:02:54.235Z,22912.00
2019-01-20T10:03:54.223Z,21824.00
2019-01-20T10:04:54.233Z,22560.00
2019-01-20T10:05:54.197Z,23264.00
2019-01-20T10:06:54.230Z,21760.00
2019-01-20T10:07:54.251Z,22304.00
2019-01-20T10:08:54.249Z,22752.00
2019-01-20T10:09:54.155Z,21056.00
2019-01-20T10:10:54.148Z,15616.00
2019-01-20T10:11:54.218Z,13240.00
2019-01-20T10:12:54.181Z,11716.00
2019-01-20T10:13:54.911Z,11740.00
2019-01-20T10:14:54.156Z,11556.00
2019-01-20T10:15:54.144Z,10580.00
2019-01-20T10:16:54.113Z,8660.00
2019-01-20T10:17:54.067Z,7816.00
2019-01-20T10:18:54.060Z,8100.00
2019-01-20T10:19:54.110Z,8112.00
2019-01-20T10:20:54.042Z,7740.00
2019-01-20T10:21:54.030Z,7112.00
2019-01-20T10:22:54.015Z,6832.00
2019-01-20T10:23:54.000Z,7264.00
2019-01-20T10:24:53.995Z,7988.00
2019-01-20T10:25:54.010Z,7848.00
2019-01-20T10:26:53.971Z,7104.00
2019-01-20T10:27:53.970Z,6592.00
2019-01-20T10:28:53.947Z,6724.00
2019-01-20T10:29:53.945Z,7448.00
2019-01-20T10:30:53.960Z,7952.00
2019-01-20T10:31:53.951Z,7788.00
2019-01-20T10:32:53.915Z,7956.00
2019-01-20T10:33:53.902Z,8268.00
2019-01-20T10:34:53.902Z,8376.00
2019-01-20T10:35:53.881Z,8228.00
2019-01-20T10:36:53.923Z,8016.00
2019-01-20T10:37:53.884Z,7700.00
2019-01-20T10:38:53.852Z,7456.00
2019-01-20T10:39:53.863Z,7340.00
2019-01-20T10:40:53.894Z,7172.00
2019-01-20T10:41:53.863Z,7000.00
2019-01-20T10:42:53.801Z,6956.00
2019-01-20T10:43:53.815Z,7032.00
2019-01-20T10:44:53.783Z,7080.00
2019-01-20T10:45:53.797Z,7236.00
2019-01-20T10:46:53.783Z,7184.00
2019-01-20T10:47:53.754Z,7124.00
2019-01-20T10:48:53.736Z,6936.00
2019-01-20T10:49:53.735Z,6944.00
2019-01-20T10:50:53.788Z,7108.00
2019-01-20T10:51:53.723Z,6996.00
2019-01-20T10:52:53.700Z,7032.00
2019-01-20T10:53:53.689Z,6952.00
2019-01-20T10:54:53.670Z,6976.00
2019-01-20T10:55:53.673Z,6976.00
2019-01-20T10:56:53.707Z,6932.00
2019-01-20T10:57:53.666Z,6888.00
2019-01-20T10:58:53.632Z,6772.00
2019-01-20T10:59:53.637Z,6672.00
2019-01-20T11:00:53.608Z,6636.00
2019-01-20T11:01:53.598Z,6508.00
2019-01-20T11:02:53.623Z,6376.00
2019-01-20T11:03:53.575Z,6172.00
2019-01-20T11:04:57.568Z,6080.00
2019-01-20T11:05:53.565Z,5932.00
2019-01-20T11:06:53.580Z,5800.00
2019-01-20T11:07:53.566Z,5760.00
2019-01-20T11:08:53.547Z,5708.00
2019-01-20T11:09:53.512Z,5568.00
2019-01-20T11:10:53.511Z,5440.00
2019-01-20T11:11:53.495Z,5380.00
2019-01-20T11:12:53.478Z,5316.00
2019-01-20T11:13:53.539Z,5200.00
2019-01-20T11:14:53.458Z,5148.00
2019-01-20T11:15:53.499Z,5132.00
2019-01-20T11:16:53.452Z,5192.00
2019-01-20T11:17:53.436Z,5216.00
2019-01-20T11:18:53.429Z,5212.00
2019-01-20T11:19:53.442Z,5200.00
2019-01-20T11:20:53.398Z,5176.00
2019-01-20T11:21:53.385Z,5172.00
2019-01-20T11:22:54.581Z,5184.00
2019-01-20T11:23:53.362Z,5176.00
2019-01-20T11:24:53.362Z,5160.00
2019-01-20T11:25:53.379Z,5044.00
2019-01-20T11:26:53.362Z,5104.00
2019-01-20T11:27:53.319Z,5160.00
2019-01-20T11:28:53.319Z,5144.00
2019-01-20T11:29:53.312Z,5048.00
2019-01-20T11:30:53.307Z,5124.00
2019-01-20T11:31:53.319Z,5072.00
2019-01-20T11:32:53.269Z,5044.00
2019-01-20T11:33:53.263Z,5032.00
2019-01-20T11:34:53.271Z,5036.00
2019-01-20T11:35:53.233Z,5116.00
2019-01-20T11:36:53.337Z,5060.00
2019-01-20T11:37:53.223Z,5112.00
2019-01-20T11:38:53.233Z,5088.00
2019-01-20T11:39:53.253Z,5068.00
2019-01-20T11:40:53.180Z,5112.00
2019-01-20T11:41:53.210Z,5168.00
2019-01-20T11:42:53.168Z,5288.00
2019-01-20T11:43:53.156Z,5332.00
2019-01-20T11:44:53.139Z,5272.00
2019-01-20T11:45:53.130Z,5296.00
2019-01-20T11:46:53.139Z,5272.00
2019-01-20T11:47:53.156Z,5300.00
2019-01-20T11:48:53.110Z,5348.00
2019-01-20T11:49:53.139Z,5212.00
2019-01-20T11:50:53.087Z,5224.00
2019-01-20T11:51:53.091Z,5184.00
2019-01-20T11:52:53.088Z,5212.00
2019-01-20T11:53:53.043Z,5212.00
2019-01-20T11:54:53.060Z,5120.00
2019-01-20T11:55:53.508Z,5168.00
2019-01-20T11:56:53.032Z,5172.00
2019-01-20T11:57:53.043Z,5180.00
2019-01-20T11:58:53.040Z,5156.00
2019-01-20T11:59:53.001Z,5088.00
2019-01-20T12:00:53.006Z,5020.00
2019-01-20T12:01:53.007Z,4944.00
2019-01-20T12:02:52.953Z,4936.00
2019-01-20T12:03:52.941Z,4872.00
2019-01-20T12:04:52.924Z,4884.00
2019-01-20T12:05:52.913Z,4812.00
2019-01-20T12:06:52.937Z,4776.00
2019-01-20T12:07:54.235Z,4780.00
2019-01-20T12:08:52.916Z,4716.00
2019-01-20T12:09:52.875Z,4668.00
2019-01-20T12:10:52.864Z,4680.00
2019-01-20T12:11:52.854Z,4632.00
2019-01-20T12:12:52.877Z,4544.00
2019-01-20T12:13:52.839Z,4480.00
2019-01-20T12:14:52.827Z,4468.00
2019-01-20T12:15:52.812Z,4492.00
2019-01-20T12:16:52.799Z,4452.00
2019-01-20T12:17:52.833Z,4412.00
2019-01-20T12:18:52.809Z,4376.00
2019-01-20T12:19:52.804Z,4364.00
2019-01-20T12:20:52.789Z,4336.00
2019-01-20T12:21:52.783Z,4288.00
2019-01-20T12:22:52.782Z,4248.00
2019-01-20T12:23:52.751Z,4196.00
2019-01-20T12:24:52.735Z,4168.00
2019-01-20T12:25:52.721Z,4184.00
2019-01-20T12:26:52.742Z,4176.00
2019-01-20T12:27:52.709Z,4124.00
2019-01-20T12:28:52.756Z,4056.00
2019-01-20T12:29:52.660Z,4020.00
2019-01-20T12:30:52.687Z,3968.00
2019-01-20T12:31:52.637Z,3928.00
2019-01-20T12:32:52.633Z,3936.00
2019-01-20T12:33:52.618Z,3892.00
2019-01-20T12:34:52.640Z,3876.00
2019-01-20T12:35:52.617Z,3912.00
2019-01-20T12:36:52.716Z,3876.00
2019-01-20T12:37:52.611Z,3844.00
2019-01-20T12:38:52.570Z,3868.00
2019-01-20T12:39:52.552Z,3836.00
2019-01-20T12:40:52.571Z,3768.00
2019-01-20T12:41:52.541Z,3720.00